sensor_id;sensor_type;location;lat;lon;timestamp;temperature;humidity
8953;DHT22;4511;50.890;8.054;2023-02-15T00:00:08;2.20;99.90
8953;DHT22;4511;50.890;8.054;2023-02-15T00:02:36;2.10;99.90
8953;DHT22;4511;50.890;8.054;2023-02-15T00:05:04;2.10;99.90
8953;DHT22;4511;50.890;8.054;2023-02-15T00:07:31;2.20;99.90
8953;DHT22;4511;50.890;8.054;2023-02-15T00:09:59;2.40;99.90
8953;DHT22;4511;50.890;8.054;2023-02-15T00:12:26;2.40;99.90
8953;DHT22;4511;50.890;8.054;2023-02-15T00:14:52;2.40;99.90
8953;DHT22;4511;50.890;8.054;2023-02-15T00:17:20;2.30;99.90
8953;DHT22;4511;50.890;8.054;2023-02-15T00:19:47;2.30;99.90
8953;DHT22;4511;50.890;8.054;2023-02-15T00:22:13;2.20;99.90
8953;DHT22;4511;50.890;8.054;2023-02-15T00:24:40;2.20;99.90
8953;DHT22;4511;50.890;8.054;2023-02-15T00:27:08;2.20;99.90
8953;DHT22;4511;50.890;8.054;2023-02-15T00:29:35;2.10;99.90
8953;DHT22;4511;50.890;8.054;2023-02-15T00:32:02;2.10;99.90
8953;DHT22;4511;50.890;8.054;2023-02-15T00:34:29;2.10;99.90
8953;DHT22;4511;50.890;8.054;2023-02-15T00:36:56;2.00;99.90
8953;DHT22;4511;50.890;8.054;2023-02-15T00:39:22;2.00;99.90
8953;DHT22;4511;50.890;8.054;2023-02-15T00:41:49;1.90;99.90
8953;DHT22;4511;50.890;8.054;2023-02-15T00:44:18;1.90;99.90
8953;DHT22;4511;50.890;8.054;2023-02-15T00:46:44;1.90;99.90
8953;DHT22;4511;50.890;8.054;2023-02-15T00:49:11;1.90;99.90
8953;DHT22;4511;50.890;8.054;2023-02-15T00:51:38;2.00;99.90
8953;DHT22;4511;50.890;8.054;2023-02-15T00:54:05;2.00;99.90
8953;DHT22;4511;50.890;8.054;2023-02-15T00:56:32;2.10;99.90
8953;DHT22;4511;50.890;8.054;2023-02-15T00:58:59;2.10;99.90
8953;DHT22;4511;50.890;8.054;2023-02-15T01:01:27;2.10;99.90
8953;DHT22;4511;50.890;8.054;2023-02-15T01:03:54;2.10;99.90
8953;DHT22;4511;50.890;8.054;2023-02-15T01:06:21;2.00;99.90
8953;DHT22;4511;50.890;8.054;2023-02-15T01:08:48;2.00;99.90
8953;DHT22;4511;50.890;8.054;2023-02-15T01:11:16;1.90;99.90
8953;DHT22;4511;50.890;8.054;2023-02-15T01:13:47;1.90;99.90
8953;DHT22;4511;50.890;8.054;2023-02-15T01:16:14;2.00;99.90
8953;DHT22;4511;50.890;8.054;2023-02-15T01:18:42;2.00;99.90
8953;DHT22;4511;50.890;8.054;2023-02-15T01:21:10;1.90;99.90
8953;DHT22;4511;50.890;8.054;2023-02-15T01:23:39;1.90;99.90
8953;DHT22;4511;50.890;8.054;2023-02-15T01:26:06;2.00;99.90
8953;DHT22;4511;50.890;8.054;2023-02-15T01:28:33;2.10;99.90
8953;DHT22;4511;50.890;8.054;2023-02-15T01:31:04;2.00;99.90
8953;DHT22;4511;50.890;8.054;2023-02-15T01:33:31;1.90;99.90
8953;DHT22;4511;50.890;8.054;2023-02-15T01:35:59;1.90;99.90
8953;DHT22;4511;50.890;8.054;2023-02-15T01:38:26;2.00;99.90
8953;DHT22;4511;50.890;8.054;2023-02-15T01:40:53;1.90;99.90
8953;DHT22;4511;50.890;8.054;2023-02-15T01:43:41;1.90;99.90
8953;DHT22;4511;50.890;8.054;2023-02-15T01:46:09;1.90;99.90
8953;DHT22;4511;50.890;8.054;2023-02-15T01:48:42;1.90;99.90
8953;DHT22;4511;50.890;8.054;2023-02-15T01:51:12;1.80;99.90
8953;DHT22;4511;50.890;8.054;2023-02-15T01:53:42;1.90;99.90
8953;DHT22;4511;50.890;8.054;2023-02-15T01:56:13;1.70;99.90
8953;DHT22;4511;50.890;8.054;2023-02-15T01:58:41;1.70;99.90
8953;DHT22;4511;50.890;8.054;2023-02-15T02:01:09;1.80;99.90
8953;DHT22;4511;50.890;8.054;2023-02-15T02:03:41;1.80;99.90
8953;DHT22;4511;50.890;8.054;2023-02-15T02:06:09;1.70;99.90
8953;DHT22;4511;50.890;8.054;2023-02-15T02:08:38;1.70;99.90
8953;DHT22;4511;50.890;8.054;2023-02-15T02:11:10;1.70;99.90
8953;DHT22;4511;50.890;8.054;2023-02-15T02:13:37;1.70;99.90
8953;DHT22;4511;50.890;8.054;2023-02-15T02:16:08;1.70;99.90
8953;DHT22;4511;50.890;8.054;2023-02-15T02:18:45;1.60;99.90
8953;DHT22;4511;50.890;8.054;2023-02-15T02:21:32;1.60;99.90
8953;DHT22;4511;50.890;8.054;2023-02-15T02:24:27;1.50;99.90
8953;DHT22;4511;50.890;8.054;2023-02-15T02:27:18;1.50;99.90
8953;DHT22;4511;50.890;8.054;2023-02-15T02:30:19;1.50;99.90
8953;DHT22;4511;50.890;8.054;2023-02-15T02:33:15;1.70;99.90
8953;DHT22;4511;50.890;8.054;2023-02-15T02:35:48;1.70;99.90
8953;DHT22;4511;50.890;8.054;2023-02-15T02:38:23;1.60;99.90
8953;DHT22;4511;50.890;8.054;2023-02-15T02:41:00;1.50;99.90
8953;DHT22;4511;50.890;8.054;2023-02-15T02:43:35;1.50;99.90
8953;DHT22;4511;50.890;8.054;2023-02-15T02:46:09;1.40;99.90
8953;DHT22;4511;50.890;8.054;2023-02-15T02:48:39;1.50;99.90
8953;DHT22;4511;50.890;8.054;2023-02-15T02:51:06;1.50;99.90
8953;DHT22;4511;50.890;8.054;2023-02-15T02:53:33;1.50;99.90
8953;DHT22;4511;50.890;8.054;2023-02-15T02:56:05;1.60;99.90
8953;DHT22;4511;50.890;8.054;2023-02-15T02:58:37;1.70;99.90
8953;DHT22;4511;50.890;8.054;2023-02-15T03:01:10;1.80;99.90
8953;DHT22;4511;50.890;8.054;2023-02-15T03:03:43;1.80;99.90
8953;DHT22;4511;50.890;8.054;2023-02-15T03:06:13;1.80;99.90
8953;DHT22;4511;50.890;8.054;2023-02-15T03:08:47;1.80;99.90
8953;DHT22;4511;50.890;8.054;2023-02-15T03:11:15;1.70;99.90
8953;DHT22;4511;50.890;8.054;2023-02-15T03:13:44;1.80;99.90
8953;DHT22;4511;50.890;8.054;2023-02-15T03:16:12;1.80;99.90
8953;DHT22;4511;50.890;8.054;2023-02-15T03:18:56;1.80;99.90
8953;DHT22;4511;50.890;8.054;2023-02-15T03:21:32;1.80;99.90
8953;DHT22;4511;50.890;8.054;2023-02-15T03:24:04;1.80;99.90
8953;DHT22;4511;50.890;8.054;2023-02-15T03:26:34;1.70;99.90
8953;DHT22;4511;50.890;8.054;2023-02-15T03:29:04;1.70;99.90
8953;DHT22;4511;50.890;8.054;2023-02-15T03:31:33;1.70;99.90
8953;DHT22;4511;50.890;8.054;2023-02-15T03:34:06;1.70;99.90
8953;DHT22;4511;50.890;8.054;2023-02-15T03:36:38;1.60;99.90
8953;DHT22;4511;50.890;8.054;2023-02-15T03:39:12;1.40;99.90
8953;DHT22;4511;50.890;8.054;2023-02-15T03:41:46;1.50;99.90
8953;DHT22;4511;50.890;8.054;2023-02-15T03:44:18;1.50;99.90
8953;DHT22;4511;50.890;8.054;2023-02-15T03:46:50;1.70;99.90
8953;DHT22;4511;50.890;8.054;2023-02-15T03:49:22;1.60;99.90
8953;DHT22;4511;50.890;8.054;2023-02-15T03:51:53;1.70;99.90
8953;DHT22;4511;50.890;8.054;2023-02-15T03:54:24;1.80;99.90
8953;DHT22;4511;50.890;8.054;2023-02-15T03:57:08;1.80;99.90
8953;DHT22;4511;50.890;8.054;2023-02-15T03:59:53;1.60;99.90
8953;DHT22;4511;50.890;8.054;2023-02-15T04:02:40;1.60;99.90
8953;DHT22;4511;50.890;8.054;2023-02-15T04:05:09;1.60;99.90
8953;DHT22;4511;50.890;8.054;2023-02-15T04:07:36;1.60;99.90
8953;DHT22;4511;50.890;8.054;2023-02-15T04:10:02;1.50;99.90
8953;DHT22;4511;50.890;8.054;2023-02-15T04:12:47;1.60;99.90
8953;DHT22;4511;50.890;8.054;2023-02-15T04:15:13;1.50;99.90
8953;DHT22;4511;50.890;8.054;2023-02-15T04:18:03;1.50;99.90
8953;DHT22;4511;50.890;8.054;2023-02-15T04:20:32;1.50;99.90
8953;DHT22;4511;50.890;8.054;2023-02-15T04:23:16;1.50;99.90
8953;DHT22;4511;50.890;8.054;2023-02-15T04:26:03;1.40;99.90
8953;DHT22;4511;50.890;8.054;2023-02-15T04:28:29;1.50;99.90
8953;DHT22;4511;50.890;8.054;2023-02-15T04:30:56;1.40;99.90
8953;DHT22;4511;50.890;8.054;2023-02-15T04:33:23;1.40;99.90
8953;DHT22;4511;50.890;8.054;2023-02-15T04:35:51;1.40;99.90
8953;DHT22;4511;50.890;8.054;2023-02-15T04:38:18;1.50;99.90
8953;DHT22;4511;50.890;8.054;2023-02-15T04:40:49;1.60;99.90
8953;DHT22;4511;50.890;8.054;2023-02-15T04:43:16;1.50;99.90
8953;DHT22;4511;50.890;8.054;2023-02-15T04:45:47;1.50;99.90
8953;DHT22;4511;50.890;8.054;2023-02-15T04:48:14;1.40;99.90
8953;DHT22;4511;50.890;8.054;2023-02-15T04:50:41;1.40;99.90
8953;DHT22;4511;50.890;8.054;2023-02-15T04:53:10;1.50;99.90
8953;DHT22;4511;50.890;8.054;2023-02-15T04:55:36;1.50;99.90
8953;DHT22;4511;50.890;8.054;2023-02-15T04:58:03;1.40;99.90
8953;DHT22;4511;50.890;8.054;2023-02-15T05:00:30;1.40;99.90
8953;DHT22;4511;50.890;8.054;2023-02-15T05:02:57;1.50;99.90
8953;DHT22;4511;50.890;8.054;2023-02-15T05:05:23;1.40;99.90
8953;DHT22;4511;50.890;8.054;2023-02-15T05:07:50;1.40;99.90
8953;DHT22;4511;50.890;8.054;2023-02-15T05:10:18;1.30;99.90
8953;DHT22;4511;50.890;8.054;2023-02-15T05:12:45;1.30;99.90
8953;DHT22;4511;50.890;8.054;2023-02-15T05:15:12;1.30;99.90
8953;DHT22;4511;50.890;8.054;2023-02-15T05:17:39;1.30;99.90
8953;DHT22;4511;50.890;8.054;2023-02-15T05:20:07;1.30;99.90
8953;DHT22;4511;50.890;8.054;2023-02-15T05:22:33;1.30;99.90
8953;DHT22;4511;50.890;8.054;2023-02-15T05:25:00;1.40;99.90
8953;DHT22;4511;50.890;8.054;2023-02-15T05:27:46;1.40;99.90
8953;DHT22;4511;50.890;8.054;2023-02-15T05:30:30;1.30;99.90
8953;DHT22;4511;50.890;8.054;2023-02-15T05:32:56;1.20;99.90
8953;DHT22;4511;50.890;8.054;2023-02-15T05:35:23;1.10;99.90
8953;DHT22;4511;50.890;8.054;2023-02-15T05:37:50;1.10;99.90
8953;DHT22;4511;50.890;8.054;2023-02-15T05:40:17;1.10;99.90
8953;DHT22;4511;50.890;8.054;2023-02-15T05:42:43;1.00;99.90
8953;DHT22;4511;50.890;8.054;2023-02-15T05:45:12;1.00;99.90
8953;DHT22;4511;50.890;8.054;2023-02-15T05:47:38;1.00;99.90
8953;DHT22;4511;50.890;8.054;2023-02-15T05:50:06;0.90;99.90
8953;DHT22;4511;50.890;8.054;2023-02-15T05:52:33;0.90;99.90
8953;DHT22;4511;50.890;8.054;2023-02-15T05:55:00;0.90;99.90
8953;DHT22;4511;50.890;8.054;2023-02-15T05:57:28;1.30;99.90
8953;DHT22;4511;50.890;8.054;2023-02-15T05:59:54;1.50;99.90
8953;DHT22;4511;50.890;8.054;2023-02-15T06:02:22;1.60;99.90
8953;DHT22;4511;50.890;8.054;2023-02-15T06:04:49;1.50;99.90
8953;DHT22;4511;50.890;8.054;2023-02-15T06:07:16;1.70;99.90
8953;DHT22;4511;50.890;8.054;2023-02-15T06:09:43;1.50;99.90
8953;DHT22;4511;50.890;8.054;2023-02-15T06:12:09;1.40;99.90
8953;DHT22;4511;50.890;8.054;2023-02-15T06:14:36;1.30;99.90
8953;DHT22;4511;50.890;8.054;2023-02-15T06:17:03;1.30;99.90
8953;DHT22;4511;50.890;8.054;2023-02-15T06:19:31;1.20;99.90
8953;DHT22;4511;50.890;8.054;2023-02-15T06:21:58;1.30;99.90
8953;DHT22;4511;50.890;8.054;2023-02-15T06:24:24;1.30;99.90
8953;DHT22;4511;50.890;8.054;2023-02-15T06:26:51;1.20;99.90
8953;DHT22;4511;50.890;8.054;2023-02-15T06:29:18;1.00;99.90
8953;DHT22;4511;50.890;8.054;2023-02-15T06:31:44;1.00;99.90
8953;DHT22;4511;50.890;8.054;2023-02-15T06:34:12;1.00;99.90
8953;DHT22;4511;50.890;8.054;2023-02-15T06:36:40;1.00;99.90
8953;DHT22;4511;50.890;8.054;2023-02-15T06:39:06;1.00;99.90
8953;DHT22;4511;50.890;8.054;2023-02-15T06:41:33;0.90;99.90
8953;DHT22;4511;50.890;8.054;2023-02-15T06:44:00;0.90;99.90
8953;DHT22;4511;50.890;8.054;2023-02-15T06:46:28;0.90;99.90
8953;DHT22;4511;50.890;8.054;2023-02-15T06:48:55;0.90;99.90
8953;DHT22;4511;50.890;8.054;2023-02-15T06:51:21;0.80;99.90
8953;DHT22;4511;50.890;8.054;2023-02-15T06:53:49;0.90;99.90
8953;DHT22;4511;50.890;8.054;2023-02-15T06:56:16;0.90;99.90
8953;DHT22;4511;50.890;8.054;2023-02-15T06:58:43;0.90;99.90
8953;DHT22;4511;50.890;8.054;2023-02-15T07:01:11;1.00;99.90
8953;DHT22;4511;50.890;8.054;2023-02-15T07:03:38;0.90;99.90
8953;DHT22;4511;50.890;8.054;2023-02-15T07:06:05;0.90;99.90
8953;DHT22;4511;50.890;8.054;2023-02-15T07:08:33;0.90;99.90
8953;DHT22;4511;50.890;8.054;2023-02-15T07:11:02;1.00;99.90
8953;DHT22;4511;50.890;8.054;2023-02-15T07:13:43;1.00;99.90
8953;DHT22;4511;50.890;8.054;2023-02-15T07:16:10;1.10;99.90
8953;DHT22;4511;50.890;8.054;2023-02-15T07:18:37;1.10;99.90
8953;DHT22;4511;50.890;8.054;2023-02-15T07:21:04;1.10;99.90
8953;DHT22;4511;50.890;8.054;2023-02-15T07:23:33;1.10;99.90
8953;DHT22;4511;50.890;8.054;2023-02-15T07:26:01;1.20;99.90
8953;DHT22;4511;50.890;8.054;2023-02-15T07:28:29;1.10;99.90
8953;DHT22;4511;50.890;8.054;2023-02-15T07:30:55;1.10;99.90
8953;DHT22;4511;50.890;8.054;2023-02-15T07:33:22;1.20;99.90
8953;DHT22;4511;50.890;8.054;2023-02-15T07:35:50;1.20;99.90
8953;DHT22;4511;50.890;8.054;2023-02-15T07:38:17;1.20;99.90
8953;DHT22;4511;50.890;8.054;2023-02-15T07:40:44;1.30;99.90
8953;DHT22;4511;50.890;8.054;2023-02-15T07:43:12;1.40;99.90
8953;DHT22;4511;50.890;8.054;2023-02-15T07:45:40;1.40;99.90
8953;DHT22;4511;50.890;8.054;2023-02-15T07:48:07;1.50;99.90
8953;DHT22;4511;50.890;8.054;2023-02-15T07:50:34;1.60;99.90
8953;DHT22;4511;50.890;8.054;2023-02-15T07:53:01;1.60;99.90
8953;DHT22;4511;50.890;8.054;2023-02-15T07:55:28;1.70;99.90
8953;DHT22;4511;50.890;8.054;2023-02-15T07:57:55;1.80;99.90
8953;DHT22;4511;50.890;8.054;2023-02-15T08:00:23;1.70;99.90
8953;DHT22;4511;50.890;8.054;2023-02-15T08:02:52;1.80;99.90
8953;DHT22;4511;50.890;8.054;2023-02-15T08:05:33;1.80;99.90
8953;DHT22;4511;50.890;8.054;2023-02-15T08:08:00;1.90;99.90
8953;DHT22;4511;50.890;8.054;2023-02-15T08:10:27;1.90;99.90
8953;DHT22;4511;50.890;8.054;2023-02-15T08:13:07;2.00;99.90
8953;DHT22;4511;50.890;8.054;2023-02-15T08:15:35;2.10;99.90
8953;DHT22;4511;50.890;8.054;2023-02-15T08:18:02;2.10;99.90
8953;DHT22;4511;50.890;8.054;2023-02-15T08:20:29;2.20;99.90
8953;DHT22;4511;50.890;8.054;2023-02-15T08:22:56;2.30;99.90
8953;DHT22;4511;50.890;8.054;2023-02-15T08:25:23;2.40;99.90
8953;DHT22;4511;50.890;8.054;2023-02-15T08:27:49;2.50;99.90
8953;DHT22;4511;50.890;8.054;2023-02-15T08:30:18;2.60;99.90
8953;DHT22;4511;50.890;8.054;2023-02-15T08:32:46;2.60;99.90
8953;DHT22;4511;50.890;8.054;2023-02-15T08:35:13;2.70;99.90
8953;DHT22;4511;50.890;8.054;2023-02-15T08:37:40;2.70;99.90
8953;DHT22;4511;50.890;8.054;2023-02-15T08:40:07;2.80;99.90
8953;DHT22;4511;50.890;8.054;2023-02-15T08:42:34;2.90;99.90
8953;DHT22;4511;50.890;8.054;2023-02-15T08:45:01;3.10;99.90
8953;DHT22;4511;50.890;8.054;2023-02-15T08:47:28;3.20;99.90
8953;DHT22;4511;50.890;8.054;2023-02-15T08:49:56;3.30;99.90
8953;DHT22;4511;50.890;8.054;2023-02-15T08:52:22;3.40;99.90
8953;DHT22;4511;50.890;8.054;2023-02-15T08:54:49;3.60;99.90
8953;DHT22;4511;50.890;8.054;2023-02-15T08:57:16;3.50;99.90
8953;DHT22;4511;50.890;8.054;2023-02-15T08:59:43;3.60;99.90
8953;DHT22;4511;50.890;8.054;2023-02-15T09:02:10;3.70;99.90
8953;DHT22;4511;50.890;8.054;2023-02-15T09:04:37;3.90;99.90
8953;DHT22;4511;50.890;8.054;2023-02-15T09:07:05;4.00;99.90
8953;DHT22;4511;50.890;8.054;2023-02-15T09:09:31;4.20;99.90
8953;DHT22;4511;50.890;8.054;2023-02-15T09:11:58;4.30;99.90
8953;DHT22;4511;50.890;8.054;2023-02-15T09:14:26;4.40;99.90
8953;DHT22;4511;50.890;8.054;2023-02-15T09:16:53;4.50;99.90
8953;DHT22;4511;50.890;8.054;2023-02-15T09:19:21;4.70;99.90
8953;DHT22;4511;50.890;8.054;2023-02-15T09:21:48;4.90;99.90
8953;DHT22;4511;50.890;8.054;2023-02-15T09:24:17;4.90;99.90
8953;DHT22;4511;50.890;8.054;2023-02-15T09:26:46;5.10;99.90
8953;DHT22;4511;50.890;8.054;2023-02-15T09:29:14;5.20;99.90
8953;DHT22;4511;50.890;8.054;2023-02-15T09:31:42;5.20;99.90
8953;DHT22;4511;50.890;8.054;2023-02-15T09:34:10;5.30;99.90
8953;DHT22;4511;50.890;8.054;2023-02-15T09:36:39;5.50;99.90
8953;DHT22;4511;50.890;8.054;2023-02-15T09:39:08;5.50;99.90
8953;DHT22;4511;50.890;8.054;2023-02-15T09:45:00;5.80;99.90
8953;DHT22;4511;50.890;8.054;2023-02-15T09:48:04;5.90;99.90
8953;DHT22;4511;50.890;8.054;2023-02-15T09:50:39;6.10;99.90
8953;DHT22;4511;50.890;8.054;2023-02-15T09:53:29;6.20;99.90
8953;DHT22;4511;50.890;8.054;2023-02-15T09:56:04;6.20;99.90
8953;DHT22;4511;50.890;8.054;2023-02-15T09:58:42;6.40;99.90
8953;DHT22;4511;50.890;8.054;2023-02-15T10:01:19;6.50;99.90
8953;DHT22;4511;50.890;8.054;2023-02-15T10:04:01;6.50;99.90
8953;DHT22;4511;50.890;8.054;2023-02-15T10:06:35;6.70;99.90
8953;DHT22;4511;50.890;8.054;2023-02-15T10:09:28;6.80;99.90
8953;DHT22;4511;50.890;8.054;2023-02-15T10:12:11;7.00;99.90
8953;DHT22;4511;50.890;8.054;2023-02-15T10:17:45;7.20;99.90
8953;DHT22;4511;50.890;8.054;2023-02-15T10:20:22;7.20;99.90
8953;DHT22;4511;50.890;8.054;2023-02-15T10:23:08;7.30;99.90
8953;DHT22;4511;50.890;8.054;2023-02-15T10:25:43;7.50;99.90
8953;DHT22;4511;50.890;8.054;2023-02-15T10:28:17;7.50;99.90
8953;DHT22;4511;50.890;8.054;2023-02-15T10:30:49;7.60;99.90
8953;DHT22;4511;50.890;8.054;2023-02-15T10:33:25;7.70;99.90
8953;DHT22;4511;50.890;8.054;2023-02-15T10:36:04;7.90;99.90
8953;DHT22;4511;50.890;8.054;2023-02-15T10:38:36;8.10;99.90
8953;DHT22;4511;50.890;8.054;2023-02-15T10:41:17;8.30;99.90
8953;DHT22;4511;50.890;8.054;2023-02-15T10:43:58;8.50;99.90
8953;DHT22;4511;50.890;8.054;2023-02-15T10:46:48;8.80;99.90
8953;DHT22;4511;50.890;8.054;2023-02-15T10:49:34;8.90;99.90
8953;DHT22;4511;50.890;8.054;2023-02-15T10:52:17;9.10;99.90
8953;DHT22;4511;50.890;8.054;2023-02-15T10:54:54;9.20;99.90
8953;DHT22;4511;50.890;8.054;2023-02-15T10:57:29;9.30;99.90
8953;DHT22;4511;50.890;8.054;2023-02-15T11:00:07;9.30;99.90
8953;DHT22;4511;50.890;8.054;2023-02-15T11:02:50;9.50;99.90
8953;DHT22;4511;50.890;8.054;2023-02-15T11:05:27;9.60;99.90
8953;DHT22;4511;50.890;8.054;2023-02-15T11:07:59;9.60;99.90
8953;DHT22;4511;50.890;8.054;2023-02-15T11:10:30;9.70;99.90
8953;DHT22;4511;50.890;8.054;2023-02-15T11:13:01;9.80;99.90
8953;DHT22;4511;50.890;8.054;2023-02-15T11:15:32;9.90;99.90
8953;DHT22;4511;50.890;8.054;2023-02-15T11:18:08;10.00;99.90
8953;DHT22;4511;50.890;8.054;2023-02-15T11:20:38;10.20;99.90
8953;DHT22;4511;50.890;8.054;2023-02-15T11:23:13;10.30;99.90
8953;DHT22;4511;50.890;8.054;2023-02-15T11:25:44;10.40;99.90
8953;DHT22;4511;50.890;8.054;2023-02-15T11:28:18;10.50;99.90
8953;DHT22;4511;50.890;8.054;2023-02-15T11:30:47;10.70;99.90
8953;DHT22;4511;50.890;8.054;2023-02-15T11:33:20;10.80;99.90
8953;DHT22;4511;50.890;8.054;2023-02-15T11:35:52;10.80;99.90
8953;DHT22;4511;50.890;8.054;2023-02-15T11:38:22;11.00;99.90
8953;DHT22;4511;50.890;8.054;2023-02-15T11:40:54;11.10;99.90
8953;DHT22;4511;50.890;8.054;2023-02-15T11:43:28;11.10;99.90
8953;DHT22;4511;50.890;8.054;2023-02-15T11:45:57;11.10;99.90
8953;DHT22;4511;50.890;8.054;2023-02-15T11:48:25;11.20;99.90
8953;DHT22;4511;50.890;8.054;2023-02-15T11:50:51;11.30;99.90
8953;DHT22;4511;50.890;8.054;2023-02-15T11:53:20;11.50;99.90
8953;DHT22;4511;50.890;8.054;2023-02-15T11:55:50;11.50;99.90
8953;DHT22;4511;50.890;8.054;2023-02-15T11:58:25;11.70;99.90
8953;DHT22;4511;50.890;8.054;2023-02-15T12:00:58;11.90;99.90
8953;DHT22;4511;50.890;8.054;2023-02-15T12:03:39;11.90;99.90
8953;DHT22;4511;50.890;8.054;2023-02-15T12:06:23;12.00;99.90
8953;DHT22;4511;50.890;8.054;2023-02-15T12:08:55;12.20;99.90
8953;DHT22;4511;50.890;8.054;2023-02-15T12:11:30;12.40;99.90
8953;DHT22;4511;50.890;8.054;2023-02-15T12:14:01;12.50;99.90
8953;DHT22;4511;50.890;8.054;2023-02-15T12:16:29;12.60;99.90
8953;DHT22;4511;50.890;8.054;2023-02-15T12:19:00;12.70;99.90
8953;DHT22;4511;50.890;8.054;2023-02-15T12:21:29;12.70;99.20
8953;DHT22;4511;50.890;8.054;2023-02-15T12:24:00;12.70;99.60
8953;DHT22;4511;50.890;8.054;2023-02-15T12:26:30;12.80;99.70
8953;DHT22;4511;50.890;8.054;2023-02-15T12:28:58;13.10;99.90
8953;DHT22;4511;50.890;8.054;2023-02-15T12:31:30;13.30;99.30
8953;DHT22;4511;50.890;8.054;2023-02-15T12:34:02;13.50;97.30
8953;DHT22;4511;50.890;8.054;2023-02-15T12:36:33;13.50;97.30
8953;DHT22;4511;50.890;8.054;2023-02-15T12:39:20;13.60;97.10
8953;DHT22;4511;50.890;8.054;2023-02-15T12:41:59;13.70;97.40
8953;DHT22;4511;50.890;8.054;2023-02-15T12:44:28;13.90;96.80
8953;DHT22;4511;50.890;8.054;2023-02-15T12:47:00;14.10;96.80
8953;DHT22;4511;50.890;8.054;2023-02-15T12:49:31;14.30;96.20
8953;DHT22;4511;50.890;8.054;2023-02-15T12:52:00;14.40;95.50
8953;DHT22;4511;50.890;8.054;2023-02-15T12:54:37;14.50;95.10
8953;DHT22;4511;50.890;8.054;2023-02-15T12:57:23;14.60;95.00
8953;DHT22;4511;50.890;8.054;2023-02-15T12:59:53;14.70;94.30
8953;DHT22;4511;50.890;8.054;2023-02-15T13:02:23;14.80;94.00
8953;DHT22;4511;50.890;8.054;2023-02-15T13:04:53;14.90;94.00
8953;DHT22;4511;50.890;8.054;2023-02-15T13:07:22;15.00;93.10
8953;DHT22;4511;50.890;8.054;2023-02-15T13:09:50;15.20;93.20
8953;DHT22;4511;50.890;8.054;2023-02-15T13:12:21;15.10;93.50
8953;DHT22;4511;50.890;8.054;2023-02-15T13:14:50;15.30;93.00
8953;DHT22;4511;50.890;8.054;2023-02-15T13:17:19;15.50;92.70
8953;DHT22;4511;50.890;8.054;2023-02-15T13:19:51;15.70;92.60
8953;DHT22;4511;50.890;8.054;2023-02-15T13:22:24;15.80;92.00
8953;DHT22;4511;50.890;8.054;2023-02-15T13:24:55;16.00;91.30
8953;DHT22;4511;50.890;8.054;2023-02-15T13:27:26;16.00;91.30
8953;DHT22;4511;50.890;8.054;2023-02-15T13:29:58;16.10;91.00
8953;DHT22;4511;50.890;8.054;2023-02-15T13:32:28;16.00;91.00
8953;DHT22;4511;50.890;8.054;2023-02-15T13:34:58;16.10;90.40
8953;DHT22;4511;50.890;8.054;2023-02-15T13:37:41;16.30;89.40
8953;DHT22;4511;50.890;8.054;2023-02-15T13:40:15;16.40;89.90
8953;DHT22;4511;50.890;8.054;2023-02-15T13:42:46;16.40;89.00
8953;DHT22;4511;50.890;8.054;2023-02-15T13:45:37;16.20;89.00
8953;DHT22;4511;50.890;8.054;2023-02-15T13:48:13;16.20;88.90
8953;DHT22;4511;50.890;8.054;2023-02-15T13:50:55;16.30;87.80
8953;DHT22;4511;50.890;8.054;2023-02-15T13:53:36;16.10;88.40
8953;DHT22;4511;50.890;8.054;2023-02-15T13:56:11;16.00;87.50
8953;DHT22;4511;50.890;8.054;2023-02-15T13:58:59;15.80;87.70
8953;DHT22;4511;50.890;8.054;2023-02-15T14:01:36;15.80;88.50
8953;DHT22;4511;50.890;8.054;2023-02-15T14:07:38;15.80;87.30
8953;DHT22;4511;50.890;8.054;2023-02-15T14:10:27;15.80;86.90
8953;DHT22;4511;50.890;8.054;2023-02-15T14:15:52;15.80;86.20
8953;DHT22;4511;50.890;8.054;2023-02-15T14:18:24;15.50;87.00
8953;DHT22;4511;50.890;8.054;2023-02-15T14:21:02;15.30;86.30
8953;DHT22;4511;50.890;8.054;2023-02-15T14:23:40;14.90;87.50
8953;DHT22;4511;50.890;8.054;2023-02-15T14:26:15;14.40;89.20
8953;DHT22;4511;50.890;8.054;2023-02-15T14:28:51;13.90;90.30
8953;DHT22;4511;50.890;8.054;2023-02-15T14:31:23;13.60;90.90
8953;DHT22;4511;50.890;8.054;2023-02-15T14:33:54;13.20;91.50
8953;DHT22;4511;50.890;8.054;2023-02-15T14:36:23;12.90;92.00
8953;DHT22;4511;50.890;8.054;2023-02-15T14:39:01;12.60;91.90
8953;DHT22;4511;50.890;8.054;2023-02-15T14:41:57;12.50;92.70
8953;DHT22;4511;50.890;8.054;2023-02-15T14:44:28;12.30;92.70
8953;DHT22;4511;50.890;8.054;2023-02-15T14:47:01;12.00;93.10
8953;DHT22;4511;50.890;8.054;2023-02-15T14:49:32;11.80;93.40
8953;DHT22;4511;50.890;8.054;2023-02-15T14:52:04;11.70;93.70
8953;DHT22;4511;50.890;8.054;2023-02-15T14:54:57;11.50;93.90
8953;DHT22;4511;50.890;8.054;2023-02-15T14:57:34;11.40;93.80
8953;DHT22;4511;50.890;8.054;2023-02-15T15:02:47;11.00;94.30
8953;DHT22;4511;50.890;8.054;2023-02-15T15:05:18;10.80;94.80
8953;DHT22;4511;50.890;8.054;2023-02-15T15:07:48;10.70;94.90
8953;DHT22;4511;50.890;8.054;2023-02-15T15:10:39;10.70;95.10
8953;DHT22;4511;50.890;8.054;2023-02-15T15:13:37;10.80;97.30
8953;DHT22;4511;50.890;8.054;2023-02-15T15:19:10;10.30;96.10
8953;DHT22;4511;50.890;8.054;2023-02-15T15:21:56;10.30;96.70
8953;DHT22;4511;50.890;8.054;2023-02-15T15:24:51;9.90;97.30
8953;DHT22;4511;50.890;8.054;2023-02-15T15:27:47;10.00;97.30
8953;DHT22;4511;50.890;8.054;2023-02-15T15:33:49;9.70;98.00
8953;DHT22;4511;50.890;8.054;2023-02-15T15:39:32;9.50;98.80
8953;DHT22;4511;50.890;8.054;2023-02-15T15:42:12;9.50;99.20
8953;DHT22;4511;50.890;8.054;2023-02-15T15:45:12;9.30;99.60
8953;DHT22;4511;50.890;8.054;2023-02-15T15:47:56;9.30;99.90
8953;DHT22;4511;50.890;8.054;2023-02-15T15:50:26;9.20;99.90
8953;DHT22;4511;50.890;8.054;2023-02-15T15:52:55;9.10;99.90
8953;DHT22;4511;50.890;8.054;2023-02-15T15:55:25;9.00;99.90
8953;DHT22;4511;50.890;8.054;2023-02-15T15:57:54;8.90;99.90
8953;DHT22;4511;50.890;8.054;2023-02-15T16:00:32;9.00;99.90
8953;DHT22;4511;50.890;8.054;2023-02-15T16:03:00;8.90;99.90
8953;DHT22;4511;50.890;8.054;2023-02-15T16:05:35;8.90;99.90
8953;DHT22;4511;50.890;8.054;2023-02-15T16:08:02;8.80;99.90
8953;DHT22;4511;50.890;8.054;2023-02-15T16:10:30;8.70;99.90
8953;DHT22;4511;50.890;8.054;2023-02-15T16:12:59;8.60;99.90
8953;DHT22;4511;50.890;8.054;2023-02-15T16:15:33;8.40;99.90
8953;DHT22;4511;50.890;8.054;2023-02-15T16:18:01;8.20;99.90
8953;DHT22;4511;50.890;8.054;2023-02-15T16:20:32;7.90;99.90
8953;DHT22;4511;50.890;8.054;2023-02-15T16:23:09;7.80;99.90
8953;DHT22;4511;50.890;8.054;2023-02-15T16:25:43;7.60;99.90
8953;DHT22;4511;50.890;8.054;2023-02-15T16:28:13;7.50;99.90
8953;DHT22;4511;50.890;8.054;2023-02-15T16:30:43;7.30;99.90
8953;DHT22;4511;50.890;8.054;2023-02-15T16:33:12;7.20;99.90
8953;DHT22;4511;50.890;8.054;2023-02-15T16:35:53;7.10;99.90
8953;DHT22;4511;50.890;8.054;2023-02-15T16:38:34;7.10;99.90
8953;DHT22;4511;50.890;8.054;2023-02-15T16:41:07;7.00;99.90
8953;DHT22;4511;50.890;8.054;2023-02-15T16:43:36;7.00;99.90
8953;DHT22;4511;50.890;8.054;2023-02-15T16:46:05;7.00;99.90
8953;DHT22;4511;50.890;8.054;2023-02-15T16:48:33;6.90;99.90
8953;DHT22;4511;50.890;8.054;2023-02-15T16:51:07;6.80;99.90
8953;DHT22;4511;50.890;8.054;2023-02-15T16:53:34;6.80;99.90
8953;DHT22;4511;50.890;8.054;2023-02-15T16:56:04;6.70;99.90
8953;DHT22;4511;50.890;8.054;2023-02-15T16:58:36;6.70;99.90
8953;DHT22;4511;50.890;8.054;2023-02-15T17:01:06;6.60;99.90
8953;DHT22;4511;50.890;8.054;2023-02-15T17:03:34;6.50;99.90
8953;DHT22;4511;50.890;8.054;2023-02-15T17:06:03;6.40;99.90
8953;DHT22;4511;50.890;8.054;2023-02-15T17:08:34;6.40;99.90